Time;durP1;ratioP1;P1;durP2;ratioP2;P2;SDS_P1;SDS_P2;PMS_P1;PMS_P2;Temp;Humidity;BMP_temperature;BMP_pressure;BME280_temperature;BME280_humidity;BME280_pressure;Samples;Min_cycle;Max_cycle;Signal;HPM_P1;HPM_P2
2022/03/18 00:02:57;;;;;;;61.00;23.02;;;;;;;0.59;45.39;100962.39;4169286;85;21310;-85
2022/03/18 00:09:14;;;;;;;;;;;;;;;0.50;45.62;100955.33;4181061;85;21038;-85
2022/03/18 00:28:31;;;;;;;31.07;14.87;;;;;;;0.09;46.21;100949.44;4179130;83;21344;-85
2022/03/18 00:34:57;;;;;;;33.67;15.58;;;;;;;0.09;46.21;100949.44;4189516;85;21081;-84
2022/03/18 00:41:27;;;;;;;40.90;17.00;;;;;;;0.17;46.58;100980.45;4190502;84;21127;-84
2022/03/18 00:54:36;;;;;;;30.00;14.43;;;;;;;-0.15;46.75;100959.77;4190486;83;21577;-85
2022/03/18 01:00:38;;;;;;;33.98;15.38;;;;;;;-0.15;46.75;100959.77;4188928;85;22358;-85
2022/03/18 01:07:47;;;;;;;34.20;15.57;;;;;;;-0.09;47.02;100976.75;4195163;85;21633;-84
2022/03/18 01:14:07;;;;;;;37.53;16.77;;;;;;;-0.15;47.20;100981.83;4188022;84;21085;-85
2022/03/18 01:20:13;;;;;;;36.17;16.42;;;;;;;-0.24;47.36;100975.30;4187305;85;21003;-85
2022/03/18 01:40:12;;;;;;;35.55;14.35;;;;;;;-0.45;48.10;100969.44;4174264;84;21069;-85
2022/03/18 01:46:37;;;;;;;36.33;16.00;;;;;;;-0.52;48.26;100967.51;4174489;85;21039;-85
2022/03/18 01:52:42;;;;;;;31.23;15.13;;;;;;;-0.62;48.35;100968.74;4173031;85;21051;-85
2022/03/18 01:58:43;;;;;;;35.40;16.37;;;;;;;-0.71;48.71;100974.30;4176629;84;21032;-86
2022/03/18 02:04:45;;;;;;;30.37;15.53;;;;;;;-0.83;49.15;100976.34;4174268;85;21030;-85
2022/03/18 02:10:47;;;;;;;36.97;15.37;;;;;;;-0.92;49.39;100973.79;4174954;84;21091;-85
2022/03/18 02:16:48;;;;;;;29.83;14.13;;;;;;;-0.99;49.73;100976.70;4177972;84;21535;-85
2022/03/18 02:22:51;;;;;;;34.23;15.40;;;;;;;-1.05;49.61;100976.33;4175669;83;22003;-85
2022/03/18 02:28:57;;;;;;;28.63;14.30;;;;;;;-1.10;49.84;100979.51;4176184;83;21058;-85
2022/03/18 02:35:18;;;;;;;23.97;11.77;;;;;;;-1.15;50.09;100991.53;4162422;83;21018;-85
2022/03/18 02:41:34;;;;;;;32.73;14.37;;;;;;;-1.24;50.35;100989.01;4157146;85;21773;-85
2022/03/18 02:47:37;;;;;;;30.57;14.17;;;;;;;-1.26;50.63;100989.78;4157260;84;21067;-84
2022/03/18 02:53:42;;;;;;;28.23;13.57;;;;;;;-1.32;50.85;100993.47;4158879;84;21087;-85
2022/03/18 02:59:43;;;;;;;35.47;14.90;;;;;;;-1.35;51.07;101004.72;4158834;84;21032;-84
2022/03/18 03:12:09;;;;;;;31.70;15.53;;;;;;;-1.40;51.45;101014.05;4154387;84;22175;-85
2022/03/18 03:18:10;;;;;;;33.77;14.80;;;;;;;-1.46;52.03;101017.20;4144903;84;21057;-85
2022/03/18 03:24:47;;;;;;;30.67;13.17;;;;;;;-1.53;51.93;101011.18;4154278;85;20994;-84
2022/03/18 03:30:49;;;;;;;;;;;;;;;-1.57;51.97;101029.66;4159290;85;21043;-84
2022/03/18 03:36:50;;;;;;;31.80;14.70;;;;;;;-1.62;52.10;101037.66;4171178;83;20856;-85
2022/03/18 03:42:52;;;;;;;26.33;13.13;;;;;;;-1.70;52.05;101039.41;4175777;84;21011;-82
2022/03/18 03:48:58;;;;;;;30.53;14.13;;;;;;;-1.75;52.26;101050.59;4176801;85;21014;-84
2022/03/18 03:54:59;;;;;;;34.97;14.23;;;;;;;-1.82;52.81;101041.91;4176967;84;21090;-84
2022/03/18 04:01:03;;;;;;;31.17;14.20;;;;;;;-1.89;52.68;101047.95;4174061;84;21007;-83
2022/03/18 04:07:08;;;;;;;33.63;14.40;;;;;;;-1.93;52.78;101055.70;4175194;84;21027;-84
2022/03/18 04:13:10;;;;;;;30.13;14.30;;;;;;;-1.90;52.76;101073.17;4174972;83;21086;-83
2022/03/18 04:19:18;;;;;;;31.57;14.80;;;;;;;-2.00;52.96;101071.13;4174335;85;21114;-83
2022/03/18 04:25:25;;;;;;;33.70;14.57;;;;;;;-2.07;53.27;101073.69;4173137;83;21526;-83
2022/03/18 04:31:27;;;;;;;27.13;14.07;;;;;;;-2.16;53.67;101065.76;3944893;82;28135;-83
2022/03/18 04:37:40;;;;;;;37.00;15.23;;;;;;;-2.22;53.59;101076.91;3929966;89;21654;-83
2022/03/18 04:43:41;;;;;;;37.53;16.23;;;;;;;-2.25;53.62;101081.42;3935496;89;21047;-81
2022/03/18 04:49:47;;;;;;;31.93;15.67;;;;;;;-2.27;53.77;101087.55;4002130;87;21079;-82
2022/03/18 04:55:48;;;;;;;26.37;12.28;;;;;;;-2.28;53.89;101086.45;4001482;87;21071;-82
2022/03/18 05:01:50;;;;;;;33.93;15.23;;;;;;;-2.31;54.07;101096.31;4000949;87;21087;-83
2022/03/18 05:07:51;;;;;;;31.77;14.00;;;;;;;-2.27;54.27;101105.53;4001473;87;21087;-83
2022/03/18 05:13:53;;;;;;;30.53;13.63;;;;;;;-2.26;54.42;101112.52;4002731;87;21036;-82
2022/03/18 05:19:55;;;;;;;32.70;15.73;;;;;;;-2.23;54.76;101108.83;4001204;89;21067;-82
2022/03/18 05:25:56;;;;;;;32.37;15.60;;;;;;;-2.15;55.80;101112.98;4000578;87;21414;-82
2022/03/18 05:32:04;;;;;;;30.30;13.67;;;;;;;-2.05;55.32;101117.21;4005101;87;21027;-82
2022/03/18 05:38:06;;;;;;;31.17;14.40;;;;;;;-1.87;55.48;101116.98;3998601;87;21119;-82
2022/03/18 05:44:07;;;;;;;32.63;15.23;;;;;;;-1.68;55.48;101123.75;3992335;87;21031;-83
2022/03/18 05:50:09;;;;;;;30.63;13.63;;;;;;;-1.52;55.76;101122.95;3995729;87;21103;-83
2022/03/18 06:02:31;;;;;;;30.37;14.73;;;;;;;-1.43;55.61;101129.53;3995684;87;21200;-82
2022/03/18 06:14:53;;;;;;;36.13;16.60;;;;;;;-1.26;55.81;101155.04;3995596;87;21126;-83
2022/03/18 06:20:56;;;;;;;32.23;13.87;;;;;;;-1.09;55.77;101156.66;3995771;87;22015;-82
2022/03/18 06:26:58;;;;;;;35.52;15.80;;;;;;;-0.92;55.96;101169.54;3924088;89;21102;-83
2022/03/18 06:33:01;;;;;;;26.33;13.70;;;;;;;-0.81;56.14;101178.03;3997395;86;21044;-83
2022/03/18 06:39:07;;;;;;;28.83;14.63;;;;;;;-0.59;56.18;101181.56;4049376;86;21129;-83
2022/03/18 06:45:10;;;;;;;31.17;14.58;;;;;;;-0.35;55.94;101176.76;4065363;86;21148;-83
2022/03/18 06:51:12;;;;;;;29.80;15.08;;;;;;;0.08;55.99;101165.92;4065203;86;21632;-83
2022/03/18 06:57:14;;;;;;;46.13;17.62;;;;;;;0.08;55.99;101165.92;4064580;86;22048;-83
2022/03/18 07:03:50;;;;;;;29.23;15.18;;;;;;;0.33;55.85;101194.46;4064988;86;21084;-84
2022/03/18 07:09:54;;;;;;;30.60;15.90;;;;;;;0.52;55.68;101201.67;4063079;86;26789;-83
2022/03/18 07:17:54;;;;;;;28.32;15.18;;;;;;;0.70;55.42;101206.14;4059554;86;21070;-82
2022/03/18 07:21:59;;;;;;;28.65;15.25;;;;;;;0.82;55.20;101208.65;4067043;86;21071;-84
2022/03/18 07:28:01;;;;;;;30.85;14.70;;;;;;;1.10;54.98;101205.09;3982357;87;21996;-84
2022/03/18 07:34:07;;;;;;;30.65;15.38;;;;;;;1.30;54.77;101214.67;3997104;88;21048;-84
2022/03/18 07:40:11;;;;;;;32.40;16.62;;;;;;;1.64;54.48;101211.09;3941671;88;21084;-85
2022/03/18 07:46:16;;;;;;;26.07;15.18;;;;;;;2.00;53.75;101219.61;4027499;87;21036;-84
2022/03/18 07:59:21;;;;;;;29.67;16.15;;;;;;;2.68;53.58;101226.50;4026696;87;21130;-85
2022/03/18 08:13:05;;;;;;;32.93;15.38;;;;;;;3.88;51.91;101234.48;3941369;89;21039;-86
2022/03/18 08:19:24;;;;;;;31.65;16.20;;;;;;;4.43;52.00;101243.67;4027194;87;21076;-86
2022/03/18 08:32:31;;;;;;;26.77;14.55;;;;;;;5.37;50.68;101235.62;3937663;89;22117;-86
2022/03/18 08:38:33;;;;;;;24.00;14.43;;;;;;;6.05;50.23;101248.75;4034775;87;21032;-86
2022/03/18 08:44:34;;;;;;;31.12;15.63;;;;;;;5.93;48.15;101251.09;3957621;89;21577;-87
2022/03/18 08:50:35;;;;;;;27.73;15.83;;;;;;;6.25;47.87;101238.97;3957532;88;21051;-85
2022/03/18 08:57:31;;;;;;;29.37;17.30;;;;;;;6.54;46.60;101245.66;4039718;87;21094;-87
2022/03/18 09:03:32;;;;;;;27.65;16.23;;;;;;;7.00;45.88;101256.66;4029717;86;21056;-87
2022/03/18 09:09:33;;;;;;;27.13;14.93;;;;;;;7.61;46.12;101265.42;4041303;87;21124;-87
2022/03/18 09:15:34;;;;;;;26.82;17.30;;;;;;;8.33;45.22;101269.98;4040350;87;21599;-87
2022/03/18 09:21:36;;;;;;;29.77;16.35;;;;;;;8.74;44.07;101272.66;4040518;86;22028;-87
2022/03/18 09:27:37;;;;;;;27.52;15.08;;;;;;;9.23;41.96;101276.09;4036883;87;21163;-87
2022/03/18 09:33:41;;;;;;;23.85;13.90;;;;;;;9.87;41.43;101276.60;4036906;86;21107;-88
2022/03/18 09:39:42;;;;;;;23.52;13.08;;;;;;;10.07;40.89;101274.14;4036979;86;21103;-89
2022/03/18 09:45:44;;;;;;;19.87;13.20;;;;;;;10.54;40.39;101277.41;4035461;87;21160;-87
2022/03/18 09:51:47;;;;;;;18.32;12.20;;;;;;;10.97;39.77;101280.20;4038439;87;21093;-88
2022/03/18 09:57:52;;;;;;;22.75;13.58;;;;;;;11.37;38.24;101280.82;4040270;87;21024;-88
2022/03/18 10:03:53;;;;;;;24.45;12.85;;;;;;;11.81;39.42;101285.33;4040240;87;21064;-88
2022/03/18 10:10:10;;;;;;;22.62;13.08;;;;;;;11.88;36.58;101288.38;3959224;88;21777;-89
2022/03/18 10:16:11;;;;;;;17.80;12.97;;;;;;;11.99;37.18;101291.56;3912362;89;21153;-88
2022/03/18 10:22:16;;;;;;;21.25;14.28;;;;;;;12.26;37.64;101298.77;3911269;89;21500;-88
2022/03/18 10:28:41;;;;;;;20.10;13.58;;;;;;;12.47;34.50;101293.34;3892374;89;21059;-88
2022/03/18 10:41:09;;;;;;;21.25;13.10;;;;;;;13.07;34.73;101294.31;3944522;88;21128;-89
2022/03/18 10:47:34;;;;;;;25.68;14.70;;;;;;;13.47;35.21;101291.27;3946116;88;21044;-88
2022/03/18 10:53:37;;;;;;;23.85;13.90;;;;;;;13.74;35.95;101292.03;3924470;89;21154;-88
2022/03/18 10:59:38;;;;;;;23.77;14.35;;;;;;;13.68;34.83;101290.09;3922003;89;21197;-88
2022/03/18 11:05:49;;;;;;;22.77;14.23;;;;;;;13.90;35.00;101295.19;3921436;89;21105;-88
2022/03/18 11:11:51;;;;;;;32.28;16.80;;;;;;;13.91;34.56;101291.84;3923490;89;21042;-88
2022/03/18 11:17:55;;;;;;;22.22;14.65;;;;;;;13.73;34.47;101293.98;3922797;89;21734;-89
2022/03/18 11:23:56;;;;;;;19.02;12.40;;;;;;;13.89;33.77;101287.27;3922579;89;21567;-86
2022/03/18 11:30:22;;;;;;;24.57;14.55;;;;;;;14.46;33.89;101289.94;3922112;89;21094;-88
2022/03/18 11:36:23;;;;;;;21.42;13.75;;;;;;;14.67;33.09;101289.23;3920493;88;21142;-89
2022/03/18 11:42:25;;;;;;;22.15;13.90;;;;;;;14.53;31.62;101279.97;3923180;89;21089;-87
2022/03/18 11:48:37;;;;;;;19.45;13.70;;;;;;;14.31;32.44;101282.38;3919762;89;21732;-88
2022/03/18 11:55:00;;;;;;;24.52;16.70;;;;;;;13.78;31.33;101280.59;3915830;89;21597;-88
2022/03/18 12:01:01;;;;;;;26.93;17.02;;;;;;;13.14;31.01;101287.13;3921969;88;21086;-87
2022/03/18 12:07:19;;;;;;;26.77;15.88;;;;;;;12.65;30.96;101278.37;3924423;89;21038;-88
2022/03/18 12:13:21;;;;;;;26.00;16.97;;;;;;;12.11;31.37;101278.75;3924475;89;21082;-87
2022/03/18 12:19:23;;;;;;;30.10;17.67;;;;;;;12.21;30.43;101274.83;3926474;88;21102;-90
2022/03/18 12:25:25;;;;;;;26.12;16.65;;;;;;;11.90;31.41;101271.59;3921771;89;21704;-88
2022/03/18 12:31:26;;;;;;;28.67;17.75;;;;;;;11.98;31.92;101268.00;3926314;89;21101;-88
2022/03/18 12:37:31;;;;;;;25.20;16.80;;;;;;;12.09;31.77;101268.66;3957073;85;21101;-89
2022/03/18 12:43:32;;;;;;;26.10;16.12;;;;;;;11.82;31.92;101267.74;4086107;85;21097;-88
2022/03/18 12:49:38;;;;;;;27.62;16.57;;;;;;;11.68;31.88;101267.12;4085035;86;21054;-88
2022/03/18 12:55:43;;;;;;;22.60;14.20;;;;;;;11.47;32.14;101264.00;4084081;86;21732;-87
2022/03/18 13:01:54;;;;;;;22.47;14.67;;;;;;;11.61;32.02;101258.57;4084195;86;21054;-88
2022/03/18 13:07:58;;;;;;;25.08;14.07;;;;;;;11.62;32.00;101256.64;4084358;85;21045;-88
2022/03/18 13:14:00;;;;;;;20.57;13.40;;;;;;;11.52;30.81;101255.61;4084128;85;21117;-89
2022/03/18 13:20:02;;;;;;;21.45;14.50;;;;;;;11.28;31.29;101262.18;4084530;86;21037;-88
2022/03/18 13:26:05;;;;;;;19.07;13.32;;;;;;;11.17;30.90;101258.16;4084983;85;21125;-87
2022/03/18 13:38:27;;;;;;;22.27;12.93;;;;;;;10.93;30.69;101257.32;4083594;86;21129;-87
2022/03/18 13:44:44;;;;;;;18.92;12.43;;;;;;;10.86;31.26;101256.43;4081189;85;21136;-87
2022/03/18 13:50:48;;;;;;;26.17;14.47;;;;;;;10.94;31.31;101263.84;4080678;86;21111;-87
2022/03/18 13:57:00;;;;;;;23.73;12.73;;;;;;;10.73;31.38;101256.56;4084392;86;21021;-90
2022/03/18 14:03:10;;;;;;;20.77;12.68;;;;;;;10.66;31.27;101268.02;4087693;86;21034;-89
2022/03/18 14:09:14;;;;;;;16.23;10.48;;;;;;;10.56;31.51;101260.66;4086228;86;21046;-88
2022/03/18 14:15:18;;;;;;;18.87;11.65;;;;;;;10.53;31.53;101253.09;4086772;85;21105;-87
2022/03/18 14:28:28;;;;;;;17.45;10.63;;;;;;;10.77;31.24;101252.08;4091736;86;21061;-87
2022/03/18 14:34:29;;;;;;;17.75;9.63;;;;;;;10.91;31.23;101253.53;4088305;86;21053;-87
2022/03/18 14:40:30;;;;;;;16.73;10.53;;;;;;;10.96;31.10;101251.19;4073510;86;21058;-88
2022/03/18 14:46:32;;;;;;;18.10;9.73;;;;;;;10.98;30.87;101252.47;3982928;88;21043;-87
2022/03/18 14:52:33;;;;;;;17.85;9.20;;;;;;;10.82;30.73;101249.18;3983336;88;21106;-88
2022/03/18 14:58:35;;;;;;;17.40;9.00;;;;;;;10.78;30.87;101244.09;3965154;88;21082;-87
2022/03/18 15:04:36;;;;;;;18.05;8.93;;;;;;;10.67;30.45;101240.05;3985254;88;21031;-87
2022/03/18 15:10:37;;;;;;;16.25;9.18;;;;;;;10.37;30.31;101236.87;3987408;87;21602;-88
2022/03/18 15:16:39;;;;;;;14.10;8.18;;;;;;;10.24;30.18;101237.83;3970153;87;21171;-87
2022/03/18 15:22:41;;;;;;;12.15;8.33;;;;;;;10.04;30.19;101241.91;3985915;88;21090;-88
2022/03/18 15:28:42;;;;;;;13.13;8.33;;;;;;;9.87;29.88;101235.56;3960448;87;77809;-87
2022/03/18 15:34:45;;;;;;;12.15;7.53;;;;;;;9.71;29.89;101237.13;4002709;87;21031;-87
2022/03/18 15:40:46;;;;;;;13.55;8.75;;;;;;;9.46;29.68;101238.59;4001334;86;21077;-87
2022/03/18 15:46:48;;;;;;;16.95;9.60;;;;;;;9.26;29.55;101241.86;3993060;87;21053;-86
2022/03/18 15:52:52;;;;;;;16.70;9.28;;;;;;;9.07;29.55;101237.14;3997133;87;21132;-87
2022/03/18 15:58:53;;;;;;;16.67;10.50;;;;;;;8.89;29.42;101247.71;3999086;87;21063;-86
2022/03/18 16:04:57;;;;;;;17.67;9.90;;;;;;;8.70;29.77;101253.34;3999885;87;22075;-86
2022/03/18 16:11:00;;;;;;;23.87;9.88;;;;;;;8.53;29.63;101256.47;3999352;87;21086;-85
2022/03/18 16:17:10;;;;;;;17.70;9.78;;;;;;;8.34;29.91;101264.80;3997119;87;21643;-86
2022/03/18 16:29:59;;;;;;;22.98;10.58;;;;;;;7.92;30.10;101262.36;3995082;87;21090;-86
2022/03/18 16:50:41;;;;;;;22.17;10.50;;;;;;;7.18;30.44;101281.69;4103281;82;26485;-86
2022/03/18 16:56:50;;;;;;;22.58;11.60;;;;;;;6.85;30.53;101295.00;4132504;83;40633;-86
2022/03/18 17:03:15;;;;;;;64.72;22.93;;;;;;;6.54;30.67;101304.16;4131112;85;21095;-86
2022/03/18 17:09:17;;;;;;;44.25;19.70;;;;;;;6.29;30.93;101310.74;4130222;85;21999;-86
2022/03/18 17:16:14;;;;;;;42.93;19.00;;;;;;;6.07;31.16;101322.70;4132039;85;21139;-86
2022/03/18 17:22:15;;;;;;;54.43;25.30;;;;;;;5.81;31.37;101330.02;4131590;85;21064;-86
2022/03/18 17:34:45;;;;;;;40.52;19.75;;;;;;;5.29;31.82;101353.02;4132989;85;21044;-86
2022/03/18 17:41:04;;;;;;;39.88;19.75;;;;;;;5.04;32.13;101357.27;4105453;84;21159;-86
2022/03/18 17:47:25;;;;;;;41.90;19.40;;;;;;;4.84;32.39;101368.52;4057889;86;21191;-85
2022/03/18 18:00:43;;;;;;;32.35;16.77;;;;;;;4.42;33.08;101379.02;4075223;87;21025;-85
2022/03/18 18:06:45;;;;;;;34.63;16.00;;;;;;;4.19;33.32;101381.53;4078959;86;21004;-87
2022/03/18 18:27:29;;;;;;;43.05;19.05;;;;;;;3.80;34.27;101394.89;4077028;86;21133;-85
2022/03/18 18:33:37;;;;;;;26.55;14.30;;;;;;;3.64;34.50;101391.91;4068497;87;21043;-84
2022/03/18 18:40:16;;;;;;;31.87;14.25;;;;;;;3.51;34.75;101394.36;4076627;86;21008;-85
2022/03/18 18:47:34;;;;;;;37.65;14.85;;;;;;;3.42;34.85;101398.13;3995527;87;21071;-85
2022/03/18 18:54:01;;;;;;;41.65;16.10;;;;;;;3.30;35.13;101404.89;4000377;89;21058;-85
2022/03/18 19:13:50;;;;;;;42.43;21.07;;;;;;;2.72;35.95;101417.75;4001911;89;21503;-85
2022/03/18 19:20:04;;;;;;;48.05;20.57;;;;;;;2.40;36.34;101421.62;4049590;87;22021;-85
2022/03/18 19:26:19;;;;;;;39.30;17.82;;;;;;;2.11;36.74;101419.87;4070825;87;21017;-85
2022/03/18 19:32:44;;;;;;;66.45;31.33;;;;;;;1.83;36.86;101425.62;4072584;87;21065;-85
2022/03/18 19:39:15;;;;;;;83.03;39.88;;;;;;;1.64;37.19;101427.88;4073173;87;21999;-86
2022/03/18 19:45:48;;;;;;;67.12;31.17;;;;;;;1.59;37.41;101427.03;4100452;83;21056;-85
2022/03/18 19:52:41;;;;;;;48.87;22.98;;;;;;;1.42;37.67;101425.81;4088525;84;21065;-84
2022/03/18 20:20:35;;;;;;;101.90;37.88;;;;;;;0.55;39.12;101434.29;3708348;95;21138;-84
2022/03/18 20:27:03;;;;;;;60.15;24.63;;;;;;;0.34;39.56;101432.38;3742869;91;21132;-84
2022/03/18 20:33:25;;;;;;;100.22;39.80;;;;;;;0.16;39.99;101424.59;3939559;89;21230;-84
2022/03/18 20:39:33;;;;;;;73.02;31.93;;;;;;;-0.07;40.32;101417.52;3980579;87;21057;-85
2022/03/18 20:46:12;;;;;;;81.72;35.70;;;;;;;-0.27;40.82;101428.78;4074120;86;21107;-84
2022/03/18 20:59:02;;;;;;;87.77;36.77;;;;;;;-0.57;41.78;101440.41;4132670;84;21039;-85
2022/03/18 21:05:14;;;;;;;92.05;34.45;;;;;;;-0.54;42.41;101436.41;4148935;84;21122;-84
2022/03/18 21:11:20;;;;;;;78.53;30.57;;;;;;;-0.66;42.33;101441.84;4148100;84;21016;-84
2022/03/18 21:17:34;;;;;;;79.85;31.15;;;;;;;-0.87;42.51;101443.07;4148645;84;21990;-84
2022/03/18 21:23:37;;;;;;;75.50;29.53;;;;;;;-1.06;42.83;101435.73;4148307;84;21159;-83
2022/03/18 21:36:03;;;;;;;71.40;31.40;;;;;;;-1.14;43.71;101435.31;4149534;84;21068;-83
2022/03/18 21:42:06;;;;;;;76.93;32.07;;;;;;;-1.16;44.06;101436.86;4151156;84;21686;-85
2022/03/18 21:48:11;;;;;;;91.00;35.97;;;;;;;-1.29;43.73;101442.53;4150118;84;21031;-84
2022/03/18 21:54:12;;;;;;;77.43;33.27;;;;;;;-1.60;44.40;101443.76;4108673;84;21100;-83
2022/03/18 22:00:18;;;;;;;77.40;34.17;;;;;;;-1.69;44.79;101457.78;4078545;86;21080;-83
2022/03/18 22:06:22;;;;;;;70.75;28.02;;;;;;;-1.76;44.94;101459.28;4081843;86;21096;-82
2022/03/18 22:12:24;;;;;;;90.67;38.67;;;;;;;-1.82;45.24;101446.77;4079714;85;21052;-84
2022/03/18 22:18:53;;;;;;;91.30;37.53;;;;;;;-1.89;45.53;101442.57;4081220;86;21565;-84
2022/03/18 22:24:54;;;;;;;102.60;39.53;;;;;;;-1.94;46.55;101453.19;4081190;86;21028;-84
2022/03/18 22:50:45;;;;;;;95.30;41.23;;;;;;;-2.21;47.94;101449.35;4080289;87;21052;-83
2022/03/18 23:04:04;;;;;;;98.87;38.37;;;;;;;-2.01;49.00;101464.58;4123965;85;21597;-83
2022/03/18 23:12:08;;;;;;;108.57;42.63;;;;;;;-2.00;49.04;101466.20;4132954;85;21598;-83
2022/03/18 23:16:31;;;;;;;100.07;39.03;;;;;;;-2.30;48.29;101457.45;4057761;86;21101;-82
2022/03/18 23:22:37;;;;;;;104.40;43.33;;;;;;;-2.56;49.36;101458.68;4058867;86;21500;-81
2022/03/18 23:28:44;;;;;;;107.07;44.60;;;;;;;-2.64;49.61;101463.54;4058828;86;21668;-80
2022/03/18 23:35:00;;;;;;;91.07;39.10;;;;;;;-2.78;49.06;101452.72;4055367;86;21251;-81
2022/03/18 23:41:02;;;;;;;106.20;43.52;;;;;;;-2.82;50.52;101452.38;4057621;86;21180;-80
2022/03/18 23:47:04;;;;;;;98.30;42.60;;;;;;;-2.71;50.80;101459.61;4113297;85;21062;-80
2022/03/18 23:59:48;;;;;;;129.37;47.87;;;;;;;-2.84;51.02;101469.72;4076772;86;21036;-80
